sensor_id;sensor_type;location;lat;lon;timestamp;pressure;altitude;pressure_sealevel;temperature;humidity
73566;BME280;61846;52.970;-3.168;2023-11-19T00:00:19;99236.60;;;11.39;59.45
73566;BME280;61846;52.970;-3.168;2023-11-19T00:02:44;99219.52;;;10.90;58.74
73566;BME280;61846;52.970;-3.168;2023-11-19T00:05:10;99211.70;;;11.29;58.08
73566;BME280;61846;52.970;-3.168;2023-11-19T00:07:35;99215.20;;;11.54;56.97
73566;BME280;61846;52.970;-3.168;2023-11-19T00:10:00;99196.15;;;11.07;58.87
73566;BME280;61846;52.970;-3.168;2023-11-19T00:12:26;99174.75;;;10.87;59.28
73566;BME280;61846;52.970;-3.168;2023-11-19T00:14:51;99180.02;;;11.31;57.87
73566;BME280;61846;52.970;-3.168;2023-11-19T00:17:17;99188.62;;;11.48;56.10
73566;BME280;61846;52.970;-3.168;2023-11-19T00:19:42;99195.04;;;11.49;56.59
73566;BME280;61846;52.970;-3.168;2023-11-19T00:22:08;99177.59;;;10.44;59.03
73566;BME280;61846;52.970;-3.168;2023-11-19T00:24:33;99180.18;;;11.27;58.27
73566;BME280;61846;52.970;-3.168;2023-11-19T00:26:59;99183.66;;;11.44;57.57
73566;BME280;61846;52.970;-3.168;2023-11-19T00:29:24;99198.16;;;10.80;59.33
73566;BME280;61846;52.970;-3.168;2023-11-19T00:31:50;99204.62;;;10.67;59.64
73566;BME280;61846;52.970;-3.168;2023-11-19T00:34:15;99197.55;;;10.90;59.82
73566;BME280;61846;52.970;-3.168;2023-11-19T00:36:40;99222.05;;;11.39;58.14
73566;BME280;61846;52.970;-3.168;2023-11-19T00:39:06;99206.99;;;11.02;59.55
73566;BME280;61846;52.970;-3.168;2023-11-19T00:41:31;99217.46;;;11.31;59.24
73566;BME280;61846;52.970;-3.168;2023-11-19T00:43:57;99213.48;;;11.26;59.05
73566;BME280;61846;52.970;-3.168;2023-11-19T00:46:23;99205.33;;;11.50;59.15
73566;BME280;61846;52.970;-3.168;2023-11-19T00:48:48;99202.88;;;12.31;56.24
73566;BME280;61846;52.970;-3.168;2023-11-19T00:51:13;99213.80;;;11.89;57.47
73566;BME280;61846;52.970;-3.168;2023-11-19T00:53:39;99207.37;;;12.05;57.15
73566;BME280;61846;52.970;-3.168;2023-11-19T00:56:05;99209.36;;;11.62;56.73
73566;BME280;61846;52.970;-3.168;2023-11-19T00:58:30;99202.56;;;11.65;55.28
73566;BME280;61846;52.970;-3.168;2023-11-19T01:00:55;99197.72;;;12.18;54.45
73566;BME280;61846;52.970;-3.168;2023-11-19T01:03:21;99194.09;;;11.36;55.34
73566;BME280;61846;52.970;-3.168;2023-11-19T01:05:46;99191.62;;;11.47;54.81
73566;BME280;61846;52.970;-3.168;2023-11-19T01:08:12;99188.09;;;11.56;55.29
73566;BME280;61846;52.970;-3.168;2023-11-19T01:10:38;99197.29;;;11.39;55.25
73566;BME280;61846;52.970;-3.168;2023-11-19T01:13:03;99199.10;;;11.25;56.78
73566;BME280;61846;52.970;-3.168;2023-11-19T01:15:29;99208.89;;;11.87;55.99
73566;BME280;61846;52.970;-3.168;2023-11-19T01:17:54;99206.19;;;10.92;59.01
73566;BME280;61846;52.970;-3.168;2023-11-19T01:20:19;99212.33;;;10.99;60.04
73566;BME280;61846;52.970;-3.168;2023-11-19T01:22:45;99199.80;;;11.00;59.51
73566;BME280;61846;52.970;-3.168;2023-11-19T01:25:11;99185.90;;;10.99;59.96
73566;BME280;61846;52.970;-3.168;2023-11-19T01:27:36;99185.13;;;11.77;57.60
73566;BME280;61846;52.970;-3.168;2023-11-19T01:30:02;99192.44;;;11.22;58.35
73566;BME280;61846;52.970;-3.168;2023-11-19T01:32:29;99194.20;;;11.16;59.33
73566;BME280;61846;52.970;-3.168;2023-11-19T01:34:53;99173.64;;;10.90;59.84
73566;BME280;61846;52.970;-3.168;2023-11-19T01:37:18;99179.20;;;10.45;60.11
73566;BME280;61846;52.970;-3.168;2023-11-19T01:39:44;99164.15;;;10.77;59.96
73566;BME280;61846;52.970;-3.168;2023-11-19T01:42:09;99162.76;;;11.06;57.93
73566;BME280;61846;52.970;-3.168;2023-11-19T01:44:34;99178.15;;;12.19;54.74
73566;BME280;61846;52.970;-3.168;2023-11-19T01:47:00;99171.16;;;12.09;54.50
73566;BME280;61846;52.970;-3.168;2023-11-19T01:49:25;99185.80;;;10.81;57.17
73566;BME280;61846;52.970;-3.168;2023-11-19T01:51:51;99188.21;;;11.79;56.21
73566;BME280;61846;52.970;-3.168;2023-11-19T01:54:16;99191.59;;;11.15;57.77
73566;BME280;61846;52.970;-3.168;2023-11-19T01:56:42;99191.59;;;11.27;58.06
73566;BME280;61846;52.970;-3.168;2023-11-19T01:59:08;99192.28;;;11.55;56.40
73566;BME280;61846;52.970;-3.168;2023-11-19T02:01:33;99204.02;;;12.01;55.69
73566;BME280;61846;52.970;-3.168;2023-11-19T02:03:58;99201.29;;;12.82;53.40
73566;BME280;61846;52.970;-3.168;2023-11-19T02:06:24;99214.82;;;11.66;55.71
73566;BME280;61846;52.970;-3.168;2023-11-19T02:08:49;99205.93;;;11.87;55.45
73566;BME280;61846;52.970;-3.168;2023-11-19T02:11:14;99203.31;;;12.04;55.18
73566;BME280;61846;52.970;-3.168;2023-11-19T02:13:40;99212.50;;;11.56;57.03
73566;BME280;61846;52.970;-3.168;2023-11-19T02:16:06;99220.92;;;10.69;59.97
73566;BME280;61846;52.970;-3.168;2023-11-19T02:18:30;99223.03;;;11.26;58.85
73566;BME280;61846;52.970;-3.168;2023-11-19T02:20:57;99219.93;;;11.81;56.07
73566;BME280;61846;52.970;-3.168;2023-11-19T02:23:22;99210.76;;;11.89;55.38
73566;BME280;61846;52.970;-3.168;2023-11-19T02:25:54;99205.82;;;11.07;58.15
73566;BME280;61846;52.970;-3.168;2023-11-19T02:28:12;99194.26;;;11.51;57.49
73566;BME280;61846;52.970;-3.168;2023-11-19T02:30:38;99193.30;;;11.44;57.06
73566;BME280;61846;52.970;-3.168;2023-11-19T02:33:04;99184.14;;;11.23;57.25
73566;BME280;61846;52.970;-3.168;2023-11-19T02:35:29;99179.22;;;11.01;57.67
73566;BME280;61846;52.970;-3.168;2023-11-19T02:37:55;99195.06;;;11.33;56.52
73566;BME280;61846;52.970;-3.168;2023-11-19T02:40:21;99193.89;;;12.04;55.61
73566;BME280;61846;52.970;-3.168;2023-11-19T02:42:46;99189.29;;;11.75;57.23
73566;BME280;61846;52.970;-3.168;2023-11-19T02:45:12;99182.28;;;11.47;58.48
73566;BME280;61846;52.970;-3.168;2023-11-19T02:47:37;99195.36;;;11.05;58.95
73566;BME280;61846;52.970;-3.168;2023-11-19T02:50:03;99195.80;;;10.77;59.77
73566;BME280;61846;52.970;-3.168;2023-11-19T02:52:28;99196.88;;;11.09;60.24
73566;BME280;61846;52.970;-3.168;2023-11-19T02:54:54;99198.06;;;10.83;61.52
73566;BME280;61846;52.970;-3.168;2023-11-19T02:57:19;99200.72;;;10.46;62.45
73566;BME280;61846;52.970;-3.168;2023-11-19T02:59:44;99204.07;;;10.25;63.17
73566;BME280;61846;52.970;-3.168;2023-11-19T03:02:09;99195.90;;;10.92;61.68
73566;BME280;61846;52.970;-3.168;2023-11-19T03:04:35;99199.81;;;11.43;59.94
73566;BME280;61846;52.970;-3.168;2023-11-19T03:07:01;99201.91;;;11.35;59.23
73566;BME280;61846;52.970;-3.168;2023-11-19T03:09:26;99187.32;;;11.44;59.31
73566;BME280;61846;52.970;-3.168;2023-11-19T03:11:52;99194.80;;;10.73;61.95
73566;BME280;61846;52.970;-3.168;2023-11-19T03:14:17;99201.61;;;11.20;60.39
73566;BME280;61846;52.970;-3.168;2023-11-19T03:16:45;99208.79;;;11.50;58.82
73566;BME280;61846;52.970;-3.168;2023-11-19T03:19:08;99217.95;;;11.79;60.12
73566;BME280;61846;52.970;-3.168;2023-11-19T03:21:34;99208.75;;;11.81;61.18
73566;BME280;61846;52.970;-3.168;2023-11-19T03:23:59;99208.42;;;11.57;60.74
73566;BME280;61846;52.970;-3.168;2023-11-19T03:26:25;99204.06;;;11.50;61.44
73566;BME280;61846;52.970;-3.168;2023-11-19T03:28:50;99196.89;;;12.46;59.20
73566;BME280;61846;52.970;-3.168;2023-11-19T03:31:16;99198.10;;;11.16;62.88
73566;BME280;61846;52.970;-3.168;2023-11-19T03:33:41;99203.81;;;12.35;60.59
73566;BME280;61846;52.970;-3.168;2023-11-19T03:36:08;99217.44;;;11.26;62.30
73566;BME280;61846;52.970;-3.168;2023-11-19T03:38:32;99213.26;;;11.40;62.02
73566;BME280;61846;52.970;-3.168;2023-11-19T03:40:58;99200.71;;;10.41;64.86
73566;BME280;61846;52.970;-3.168;2023-11-19T03:43:24;99193.88;;;10.70;65.45
73566;BME280;61846;52.970;-3.168;2023-11-19T03:45:49;99187.82;;;10.64;66.13
73566;BME280;61846;52.970;-3.168;2023-11-19T03:48:14;99189.52;;;10.01;68.20
73566;BME280;61846;52.970;-3.168;2023-11-19T03:50:39;99184.68;;;10.40;67.64
73566;BME280;61846;52.970;-3.168;2023-11-19T03:53:05;99184.54;;;10.73;67.02
73566;BME280;61846;52.970;-3.168;2023-11-19T03:55:31;99187.45;;;9.91;68.29
73566;BME280;61846;52.970;-3.168;2023-11-19T03:57:56;99195.40;;;9.82;70.72
73566;BME280;61846;52.970;-3.168;2023-11-19T04:00:22;99198.73;;;10.14;68.47
73566;BME280;61846;52.970;-3.168;2023-11-19T04:02:47;99181.43;;;10.25;68.16
73566;BME280;61846;52.970;-3.168;2023-11-19T04:05:13;99191.18;;;10.33;67.98
73566;BME280;61846;52.970;-3.168;2023-11-19T04:07:38;99178.07;;;10.12;67.41
73566;BME280;61846;52.970;-3.168;2023-11-19T04:10:05;99189.45;;;9.64;68.46
73566;BME280;61846;52.970;-3.168;2023-11-19T04:12:30;99177.15;;;10.21;67.83
73566;BME280;61846;52.970;-3.168;2023-11-19T04:14:55;99179.64;;;10.44;66.70
73566;BME280;61846;52.970;-3.168;2023-11-19T04:17:21;99184.36;;;9.66;68.14
73566;BME280;61846;52.970;-3.168;2023-11-19T04:19:47;99171.75;;;11.39;64.47
73566;BME280;61846;52.970;-3.168;2023-11-19T04:22:13;99178.59;;;10.32;67.69
73566;BME280;61846;52.970;-3.168;2023-11-19T04:24:38;99193.06;;;10.61;66.41
73566;BME280;61846;52.970;-3.168;2023-11-19T04:27:03;99183.99;;;11.60;63.01
73566;BME280;61846;52.970;-3.168;2023-11-19T04:29:30;99189.27;;;11.75;61.81
73566;BME280;61846;52.970;-3.168;2023-11-19T04:31:54;99189.80;;;11.57;61.92
73566;BME280;61846;52.970;-3.168;2023-11-19T04:34:20;99195.32;;;10.78;66.30
73566;BME280;61846;52.970;-3.168;2023-11-19T04:36:45;99203.16;;;10.54;67.54
73566;BME280;61846;52.970;-3.168;2023-11-19T04:39:10;99198.51;;;11.80;63.96
73566;BME280;61846;52.970;-3.168;2023-11-19T04:41:36;99197.81;;;12.26;61.69
73566;BME280;61846;52.970;-3.168;2023-11-19T04:44:02;99194.49;;;11.65;63.15
73566;BME280;61846;52.970;-3.168;2023-11-19T04:46:27;99190.95;;;12.44;61.79
73566;BME280;61846;52.970;-3.168;2023-11-19T04:48:53;99193.37;;;11.09;61.87
73566;BME280;61846;52.970;-3.168;2023-11-19T04:51:18;99208.75;;;12.57;60.08
73566;BME280;61846;52.970;-3.168;2023-11-19T04:53:43;99211.67;;;11.53;62.13
73566;BME280;61846;52.970;-3.168;2023-11-19T04:56:10;99213.52;;;11.73;62.85
73566;BME280;61846;52.970;-3.168;2023-11-19T04:58:34;99209.64;;;12.02;61.92
73566;BME280;61846;52.970;-3.168;2023-11-19T05:01:00;99214.45;;;11.43;64.21
73566;BME280;61846;52.970;-3.168;2023-11-19T05:03:25;99204.71;;;11.34;64.61
73566;BME280;61846;52.970;-3.168;2023-11-19T05:05:50;99204.75;;;10.79;66.73
73566;BME280;61846;52.970;-3.168;2023-11-19T05:08:21;99205.52;;;11.41;65.40
73566;BME280;61846;52.970;-3.168;2023-11-19T05:10:41;99210.77;;;10.99;66.56
73566;BME280;61846;52.970;-3.168;2023-11-19T05:13:07;99198.59;;;10.82;65.84
73566;BME280;61846;52.970;-3.168;2023-11-19T05:15:32;99205.36;;;11.35;63.76
73566;BME280;61846;52.970;-3.168;2023-11-19T05:17:58;99194.32;;;11.81;63.34
73566;BME280;61846;52.970;-3.168;2023-11-19T05:20:23;99201.61;;;11.69;63.69
73566;BME280;61846;52.970;-3.168;2023-11-19T05:22:49;99196.49;;;11.82;63.75
73566;BME280;61846;52.970;-3.168;2023-11-19T05:25:14;99190.40;;;10.97;66.31
73566;BME280;61846;52.970;-3.168;2023-11-19T05:27:39;99190.54;;;11.23;66.14
73566;BME280;61846;52.970;-3.168;2023-11-19T05:30:06;99192.02;;;11.12;67.14
73566;BME280;61846;52.970;-3.168;2023-11-19T05:32:30;99190.85;;;10.97;66.62
73566;BME280;61846;52.970;-3.168;2023-11-19T05:34:55;99183.09;;;11.33;66.45
73566;BME280;61846;52.970;-3.168;2023-11-19T05:37:21;99176.23;;;11.86;63.14
73566;BME280;61846;52.970;-3.168;2023-11-19T05:39:46;99177.76;;;11.55;63.96
73566;BME280;61846;52.970;-3.168;2023-11-19T05:42:12;99185.55;;;11.82;62.11
73566;BME280;61846;52.970;-3.168;2023-11-19T05:44:37;99187.26;;;12.29;61.42
73566;BME280;61846;52.970;-3.168;2023-11-19T05:47:03;99187.65;;;13.03;58.29
73566;BME280;61846;52.970;-3.168;2023-11-19T05:49:28;99187.55;;;11.94;62.08
73566;BME280;61846;52.970;-3.168;2023-11-19T05:51:54;99184.17;;;12.31;61.41
73566;BME280;61846;52.970;-3.168;2023-11-19T05:54:19;99185.77;;;12.10;62.40
73566;BME280;61846;52.970;-3.168;2023-11-19T05:56:47;99177.81;;;12.01;62.43
73566;BME280;61846;52.970;-3.168;2023-11-19T05:59:10;99175.38;;;10.74;64.38
73566;BME280;61846;52.970;-3.168;2023-11-19T06:01:36;99179.01;;;11.76;62.15
73566;BME280;61846;52.970;-3.168;2023-11-19T06:04:01;99176.28;;;11.83;62.73
73566;BME280;61846;52.970;-3.168;2023-11-19T06:06:28;99173.97;;;10.53;65.27
73566;BME280;61846;52.970;-3.168;2023-11-19T06:08:53;99166.95;;;10.77;67.55
73566;BME280;61846;52.970;-3.168;2023-11-19T06:11:18;99165.73;;;10.65;67.83
73566;BME280;61846;52.970;-3.168;2023-11-19T06:13:44;99172.49;;;11.17;67.28
73566;BME280;61846;52.970;-3.168;2023-11-19T06:16:09;99161.34;;;10.24;69.37
73566;BME280;61846;52.970;-3.168;2023-11-19T06:18:36;99143.49;;;12.12;63.40
73566;BME280;61846;52.970;-3.168;2023-11-19T06:21:00;99139.99;;;12.86;61.56
73566;BME280;61846;52.970;-3.168;2023-11-19T06:23:26;99152.75;;;12.24;61.85
73566;BME280;61846;52.970;-3.168;2023-11-19T06:25:51;99157.12;;;12.91;59.98
73566;BME280;61846;52.970;-3.168;2023-11-19T06:28:17;99149.46;;;13.31;58.26
73566;BME280;61846;52.970;-3.168;2023-11-19T06:30:42;99149.13;;;13.43;58.18
73566;BME280;61846;52.970;-3.168;2023-11-19T06:33:08;99148.89;;;13.05;58.65
73566;BME280;61846;52.970;-3.168;2023-11-19T06:35:33;99148.20;;;12.28;60.90
73566;BME280;61846;52.970;-3.168;2023-11-19T06:37:59;99153.86;;;11.78;63.81
73566;BME280;61846;52.970;-3.168;2023-11-19T06:40:24;99148.61;;;12.50;61.24
73566;BME280;61846;52.970;-3.168;2023-11-19T06:42:49;99145.29;;;12.53;60.47
73566;BME280;61846;52.970;-3.168;2023-11-19T06:45:15;99150.53;;;12.34;60.43
73566;BME280;61846;52.970;-3.168;2023-11-19T06:47:41;99144.64;;;12.22;60.52
73566;BME280;61846;52.970;-3.168;2023-11-19T06:50:07;99152.93;;;11.24;62.34
73566;BME280;61846;52.970;-3.168;2023-11-19T06:52:32;99151.42;;;11.80;61.74
73566;BME280;61846;52.970;-3.168;2023-11-19T06:54:57;99151.82;;;11.18;65.47
73566;BME280;61846;52.970;-3.168;2023-11-19T06:57:23;99158.94;;;11.77;63.31
73566;BME280;61846;52.970;-3.168;2023-11-19T06:59:48;99162.68;;;11.31;65.06
73566;BME280;61846;52.970;-3.168;2023-11-19T07:02:13;99170.79;;;11.74;64.92
73566;BME280;61846;52.970;-3.168;2023-11-19T07:04:40;99180.81;;;11.81;64.37
73566;BME280;61846;52.970;-3.168;2023-11-19T07:07:04;99165.83;;;11.00;65.13
73566;BME280;61846;52.970;-3.168;2023-11-19T07:09:30;99168.68;;;10.93;66.02
73566;BME280;61846;52.970;-3.168;2023-11-19T07:11:55;99161.95;;;11.17;65.50
73566;BME280;61846;52.970;-3.168;2023-11-19T07:14:21;99153.85;;;10.56;67.53
73566;BME280;61846;52.970;-3.168;2023-11-19T07:16:46;99146.30;;;10.65;67.58
73566;BME280;61846;52.970;-3.168;2023-11-19T07:19:12;99158.08;;;11.12;64.48
73566;BME280;61846;52.970;-3.168;2023-11-19T07:21:37;99148.84;;;11.41;63.26
73566;BME280;61846;52.970;-3.168;2023-11-19T07:24:02;99137.13;;;12.49;61.45
73566;BME280;61846;52.970;-3.168;2023-11-19T07:26:28;99132.23;;;12.51;59.65
73566;BME280;61846;52.970;-3.168;2023-11-19T07:28:53;99124.36;;;12.87;58.04
73566;BME280;61846;52.970;-3.168;2023-11-19T07:31:19;99119.67;;;12.83;58.05
73566;BME280;61846;52.970;-3.168;2023-11-19T07:33:45;99118.36;;;12.28;58.71
73566;BME280;61846;52.970;-3.168;2023-11-19T07:36:11;99126.19;;;12.38;59.01
73566;BME280;61846;52.970;-3.168;2023-11-19T07:38:35;99127.21;;;11.94;59.73
73566;BME280;61846;52.970;-3.168;2023-11-19T07:41:01;99125.75;;;11.99;61.47
73566;BME280;61846;52.970;-3.168;2023-11-19T07:43:26;99121.34;;;12.46;60.01
73566;BME280;61846;52.970;-3.168;2023-11-19T07:45:51;99124.45;;;12.39;60.25
73566;BME280;61846;52.970;-3.168;2023-11-19T07:48:17;99120.47;;;13.27;58.38
73566;BME280;61846;52.970;-3.168;2023-11-19T07:50:42;99124.34;;;13.40;56.95
73566;BME280;61846;52.970;-3.168;2023-11-19T07:53:08;99127.16;;;13.82;56.35
73566;BME280;61846;52.970;-3.168;2023-11-19T07:55:33;99127.87;;;13.92;55.10
73566;BME280;61846;52.970;-3.168;2023-11-19T07:57:59;99117.30;;;14.52;53.93
73566;BME280;61846;52.970;-3.168;2023-11-19T08:00:24;99126.49;;;14.38;53.46
73566;BME280;61846;52.970;-3.168;2023-11-19T08:02:50;99125.23;;;14.63;53.20
73566;BME280;61846;52.970;-3.168;2023-11-19T08:05:15;99131.19;;;13.99;55.09
73566;BME280;61846;52.970;-3.168;2023-11-19T08:07:41;99127.84;;;14.21;53.39
73566;BME280;61846;52.970;-3.168;2023-11-19T08:10:07;99122.66;;;14.53;52.79
73566;BME280;61846;52.970;-3.168;2023-11-19T08:12:32;99119.57;;;15.05;51.67
73566;BME280;61846;52.970;-3.168;2023-11-19T08:14:57;99113.06;;;14.84;51.06
73566;BME280;61846;52.970;-3.168;2023-11-19T08:17:23;99120.39;;;15.03;51.53
73566;BME280;61846;52.970;-3.168;2023-11-19T08:19:48;99121.85;;;14.95;51.83
73566;BME280;61846;52.970;-3.168;2023-11-19T08:22:15;99122.18;;;14.66;51.70
73566;BME280;61846;52.970;-3.168;2023-11-19T08:24:39;99130.13;;;14.97;50.73
73566;BME280;61846;52.970;-3.168;2023-11-19T08:27:05;99126.94;;;14.54;53.31
73566;BME280;61846;52.970;-3.168;2023-11-19T08:29:30;99124.05;;;15.03;51.55
73566;BME280;61846;52.970;-3.168;2023-11-19T08:31:56;99118.55;;;14.38;52.45
73566;BME280;61846;52.970;-3.168;2023-11-19T08:34:22;99113.17;;;15.26;51.04
73566;BME280;61846;52.970;-3.168;2023-11-19T08:36:50;99114.15;;;15.66;50.20
73566;BME280;61846;52.970;-3.168;2023-11-19T08:39:12;99109.22;;;15.57;50.43
73566;BME280;61846;52.970;-3.168;2023-11-19T08:41:38;99102.09;;;15.09;50.83
73566;BME280;61846;52.970;-3.168;2023-11-19T08:44:04;99099.52;;;14.76;52.61
73566;BME280;61846;52.970;-3.168;2023-11-19T08:46:29;99108.13;;;15.35;51.13
73566;BME280;61846;52.970;-3.168;2023-11-19T08:48:54;99107.37;;;15.27;51.01
73566;BME280;61846;52.970;-3.168;2023-11-19T08:51:20;99108.16;;;15.55;50.94
73566;BME280;61846;52.970;-3.168;2023-11-19T08:53:45;99111.76;;;15.34;50.65
73566;BME280;61846;52.970;-3.168;2023-11-19T08:56:11;99103.28;;;14.98;51.85
73566;BME280;61846;52.970;-3.168;2023-11-19T08:58:36;99105.22;;;15.94;49.89
73566;BME280;61846;52.970;-3.168;2023-11-19T09:01:02;99111.08;;;14.62;52.52
73566;BME280;61846;52.970;-3.168;2023-11-19T09:03:27;99109.43;;;14.77;53.16
73566;BME280;61846;52.970;-3.168;2023-11-19T09:05:53;99107.26;;;15.03;52.97
73566;BME280;61846;52.970;-3.168;2023-11-19T09:08:18;99105.56;;;15.84;51.68
73566;BME280;61846;52.970;-3.168;2023-11-19T09:10:43;99097.71;;;15.03;53.29
73566;BME280;61846;52.970;-3.168;2023-11-19T09:13:09;99091.90;;;14.07;55.24
73566;BME280;61846;52.970;-3.168;2023-11-19T09:15:34;99092.37;;;15.03;53.30
73566;BME280;61846;52.970;-3.168;2023-11-19T09:18:00;99089.18;;;15.04;53.44
73566;BME280;61846;52.970;-3.168;2023-11-19T09:20:25;99090.88;;;15.00;54.00
73566;BME280;61846;52.970;-3.168;2023-11-19T09:22:51;99085.63;;;15.07;53.51
73566;BME280;61846;52.970;-3.168;2023-11-19T09:25:16;99090.51;;;14.53;54.70
73566;BME280;61846;52.970;-3.168;2023-11-19T09:27:42;99086.15;;;15.04;54.18
73566;BME280;61846;52.970;-3.168;2023-11-19T09:30:08;99085.51;;;14.45;54.47
73566;BME280;61846;52.970;-3.168;2023-11-19T09:32:33;99091.27;;;13.64;58.14
73566;BME280;61846;52.970;-3.168;2023-11-19T09:34:58;99087.84;;;14.88;55.20
73566;BME280;61846;52.970;-3.168;2023-11-19T09:37:23;99088.50;;;12.84;60.25
73566;BME280;61846;52.970;-3.168;2023-11-19T09:39:49;99086.70;;;14.66;55.93
73566;BME280;61846;52.970;-3.168;2023-11-19T09:42:14;99083.83;;;14.79;54.75
73566;BME280;61846;52.970;-3.168;2023-11-19T09:44:39;99092.81;;;15.29;54.09
73566;BME280;61846;52.970;-3.168;2023-11-19T09:47:05;99089.22;;;15.48;53.50
73566;BME280;61846;52.970;-3.168;2023-11-19T09:49:30;99086.69;;;15.21;52.58
73566;BME280;61846;52.970;-3.168;2023-11-19T09:51:55;99085.04;;;15.03;55.59
73566;BME280;61846;52.970;-3.168;2023-11-19T09:54:21;99082.96;;;14.75;55.80
73566;BME280;61846;52.970;-3.168;2023-11-19T09:56:46;99083.50;;;14.06;57.98
73566;BME280;61846;52.970;-3.168;2023-11-19T09:59:12;99070.08;;;14.59;57.09
73566;BME280;61846;52.970;-3.168;2023-11-19T10:01:38;99075.70;;;13.95;58.54
73566;BME280;61846;52.970;-3.168;2023-11-19T10:04:03;99076.10;;;14.69;58.24
73566;BME280;61846;52.970;-3.168;2023-11-19T10:06:29;99075.72;;;14.94;56.77
73566;BME280;61846;52.970;-3.168;2023-11-19T10:08:53;99067.02;;;13.81;58.82
73566;BME280;61846;52.970;-3.168;2023-11-19T10:11:19;99062.18;;;14.75;58.28
73566;BME280;61846;52.970;-3.168;2023-11-19T10:13:44;99071.16;;;14.74;57.55
73566;BME280;61846;52.970;-3.168;2023-11-19T10:16:12;99076.78;;;15.19;55.90
73566;BME280;61846;52.970;-3.168;2023-11-19T10:18:35;99079.14;;;14.88;57.01
73566;BME280;61846;52.970;-3.168;2023-11-19T10:21:01;99090.40;;;14.81;56.48
73566;BME280;61846;52.970;-3.168;2023-11-19T10:23:26;99079.56;;;14.11;58.83
73566;BME280;61846;52.970;-3.168;2023-11-19T10:25:53;99080.67;;;13.31;60.78
73566;BME280;61846;52.970;-3.168;2023-11-19T10:28:18;99071.42;;;14.35;59.17
73566;BME280;61846;52.970;-3.168;2023-11-19T10:30:42;99076.44;;;13.49;61.18
73566;BME280;61846;52.970;-3.168;2023-11-19T10:33:09;99069.27;;;13.55;61.45
73566;BME280;61846;52.970;-3.168;2023-11-19T10:35:34;99062.07;;;13.66;62.35
73566;BME280;61846;52.970;-3.168;2023-11-19T10:38:00;99065.89;;;13.89;60.94
73566;BME280;61846;52.970;-3.168;2023-11-19T10:40:38;99071.44;;;13.80;60.24
73566;BME280;61846;52.970;-3.168;2023-11-19T10:45:22;99076.57;;;13.46;61.33
73566;BME280;61846;52.970;-3.168;2023-11-19T10:47:41;99073.34;;;13.06;63.49
73566;BME280;61846;52.970;-3.168;2023-11-19T10:50:07;99072.22;;;13.58;61.63
73566;BME280;61846;52.970;-3.168;2023-11-19T10:52:37;99079.98;;;13.29;62.35
73566;BME280;61846;52.970;-3.168;2023-11-19T10:55:00;99078.05;;;13.69;62.33
73566;BME280;61846;52.970;-3.168;2023-11-19T10:57:25;99081.02;;;14.15;62.27
73566;BME280;61846;52.970;-3.168;2023-11-19T10:59:49;99081.44;;;14.11;60.64
73566;BME280;61846;52.970;-3.168;2023-11-19T11:02:19;99071.47;;;13.52;62.33
73566;BME280;61846;52.970;-3.168;2023-11-19T11:04:40;99074.84;;;14.01;61.00
73566;BME280;61846;52.970;-3.168;2023-11-19T11:07:06;99072.97;;;14.05;63.38
73566;BME280;61846;52.970;-3.168;2023-11-19T11:09:30;99063.17;;;13.74;62.89
73566;BME280;61846;52.970;-3.168;2023-11-19T11:11:55;99069.97;;;13.99;63.01
73566;BME280;61846;52.970;-3.168;2023-11-19T11:14:21;99073.24;;;13.48;64.89
73566;BME280;61846;52.970;-3.168;2023-11-19T11:16:46;99080.77;;;13.61;63.04
73566;BME280;61846;52.970;-3.168;2023-11-19T11:19:12;99075.47;;;13.47;64.09
73566;BME280;61846;52.970;-3.168;2023-11-19T11:21:39;99078.71;;;14.36;61.75
73566;BME280;61846;52.970;-3.168;2023-11-19T11:24:18;99088.05;;;13.94;63.01
73566;BME280;61846;52.970;-3.168;2023-11-19T11:26:45;99082.85;;;13.98;62.33
73566;BME280;61846;52.970;-3.168;2023-11-19T11:28:58;99072.03;;;14.90;60.22
73566;BME280;61846;52.970;-3.168;2023-11-19T11:31:31;99073.49;;;14.09;61.34
73566;BME280;61846;52.970;-3.168;2023-11-19T11:34:00;99092.12;;;13.15;64.42
73566;BME280;61846;52.970;-3.168;2023-11-19T11:36:16;99080.64;;;13.40;65.77
73566;BME280;61846;52.970;-3.168;2023-11-19T11:38:36;99093.41;;;13.38;65.93
73566;BME280;61846;52.970;-3.168;2023-11-19T11:41:16;99094.86;;;13.24;67.27
73566;BME280;61846;52.970;-3.168;2023-11-19T11:43:43;99104.05;;;12.88;68.74
73566;BME280;61846;52.970;-3.168;2023-11-19T11:45:51;99088.33;;;12.99;67.91
73566;BME280;61846;52.970;-3.168;2023-11-19T11:48:19;99068.61;;;13.08;67.81
73566;BME280;61846;52.970;-3.168;2023-11-19T11:50:49;99083.01;;;13.70;65.68
73566;BME280;61846;52.970;-3.168;2023-11-19T11:53:16;99081.94;;;13.33;66.01
73566;BME280;61846;52.970;-3.168;2023-11-19T11:55:35;99078.63;;;13.20;66.76
73566;BME280;61846;52.970;-3.168;2023-11-19T11:57:59;99077.20;;;13.99;65.83
73566;BME280;61846;52.970;-3.168;2023-11-19T12:00:27;99086.67;;;13.16;67.61
73566;BME280;61846;52.970;-3.168;2023-11-19T12:02:50;99096.32;;;13.07;68.37
73566;BME280;61846;52.970;-3.168;2023-11-19T12:05:15;99085.89;;;12.68;68.82
73566;BME280;61846;52.970;-3.168;2023-11-19T12:07:41;99086.37;;;13.20;67.91
73566;BME280;61846;52.970;-3.168;2023-11-19T12:10:08;99081.33;;;13.48;67.26
73566;BME280;61846;52.970;-3.168;2023-11-19T12:12:32;99092.16;;;13.02;69.43
73566;BME280;61846;52.970;-3.168;2023-11-19T12:15:02;99085.44;;;12.58;70.59
73566;BME280;61846;52.970;-3.168;2023-11-19T12:17:37;99091.58;;;13.06;69.79
73566;BME280;61846;52.970;-3.168;2023-11-19T12:19:49;99096.03;;;12.95;69.17
73566;BME280;61846;52.970;-3.168;2023-11-19T12:22:14;99083.04;;;12.85;69.28
73566;BME280;61846;52.970;-3.168;2023-11-19T12:24:40;99091.22;;;12.79;68.98
73566;BME280;61846;52.970;-3.168;2023-11-19T12:27:05;99086.33;;;13.05;68.10
73566;BME280;61846;52.970;-3.168;2023-11-19T12:31:56;99092.84;;;12.76;68.99
73566;BME280;61846;52.970;-3.168;2023-11-19T12:34:21;99096.37;;;13.15;67.59
73566;BME280;61846;52.970;-3.168;2023-11-19T12:36:46;99108.30;;;13.11;66.30
73566;BME280;61846;52.970;-3.168;2023-11-19T12:39:12;99106.31;;;12.56;69.23
73566;BME280;61846;52.970;-3.168;2023-11-19T12:41:48;99104.57;;;12.26;70.68
73566;BME280;61846;52.970;-3.168;2023-11-19T12:44:10;99108.80;;;12.08;72.39